Chardon, Ohio
Current Conditions -  °F | °C
As of 7:45 AM on Thursday 23 Oct 2014 (Local Time) from KCGF Reporting Station
Scattered Clouds Scattered Clouds  
Wind Chill: 46°   Ceiling: Unl
Heat Index: 48°   Visibility: 10mi
Dew Point: 46°   Wind: 6mph
Humidity: 93%   Direction: 20°NNE
Pressure: 30.2"   Gusts: NA
Location:  41.61°N, 81.15°W
Report Text: KCGF 231145Z 02005KT 10SM SCT010 09/08 A3020
Loading
Personal Weather Stations






























Interactive Weather Map
Tropical Storm Tracking
New forecast layout! Learn more

10-Day Weather Forecast

Advertisements
Track Severe Weather on mobile